ENVR/VRY METAR and TAF weather

Enter ICAO airport designator
Station Type Date Time Source
ENVR METAR 2018/01/20 07:50 UTC NOAA

ENVR 200750Z 11015KT CAVOK M01/M07 Q1004


Station Type Date Time Source
ENVR Decoded METAR 2018/01/20 07:50 UTC NOAA

Station name not available
Jan 20, 2018 - 02:50 AM EST / 2018.01.20 0750 UTC
Wind: from the ESE (110 degrees) at 17 MPH (15 KT):0
Visibility: greater than 7 mile(s):0
Temperature: 30 F (-1 C)
Windchill: 17 F (-8 C):1
Dew Point: 19 F (-7 C)
Relative Humidity: 63%
Pressure (altimeter): 29.65 in. Hg (1004 hPa)
ob: ENVR 200750Z 11015KT CAVOK M01/M07 Q1004
cycle: 8

Station Type Date Time Source
ENVR TAF UTC NOAA

Error!


Example: see airport list